sensor_id;sensor_type;location;lat;lon;timestamp;pressure;altitude;pressure_sealevel;temperature;humidity
7532;BME280;3807;49.030;8.714;2023-06-26T00:00:43;99171.28;;;29.21;37.14
7532;BME280;3807;49.030;8.714;2023-06-26T00:03:08;99179.03;;;29.14;37.30
7532;BME280;3807;49.030;8.714;2023-06-26T00:05:33;99176.50;;;28.98;37.67
7532;BME280;3807;49.030;8.714;2023-06-26T00:07:59;99176.84;;;28.95;37.44
7532;BME280;3807;49.030;8.714;2023-06-26T00:10:26;99170.47;;;28.89;37.70
7532;BME280;3807;49.030;8.714;2023-06-26T00:12:52;99179.50;;;28.87;37.71
7532;BME280;3807;49.030;8.714;2023-06-26T00:15:17;99170.87;;;28.78;37.86
7532;BME280;3807;49.030;8.714;2023-06-26T00:17:42;99176.97;;;28.70;38.05
7532;BME280;3807;49.030;8.714;2023-06-26T00:20:10;99186.28;;;28.73;37.85
7532;BME280;3807;49.030;8.714;2023-06-26T00:22:35;99188.91;;;28.73;37.88
7532;BME280;3807;49.030;8.714;2023-06-26T00:25:00;99180.00;;;28.59;38.12
7532;BME280;3807;49.030;8.714;2023-06-26T00:27:26;99178.03;;;28.53;38.10
7532;BME280;3807;49.030;8.714;2023-06-26T00:29:51;99177.09;;;28.46;38.23
7532;BME280;3807;49.030;8.714;2023-06-26T00:32:18;99177.06;;;28.38;38.49
7532;BME280;3807;49.030;8.714;2023-06-26T00:34:43;99181.03;;;28.42;38.51
7532;BME280;3807;49.030;8.714;2023-06-26T00:37:08;99175.78;;;28.34;38.55
7532;BME280;3807;49.030;8.714;2023-06-26T00:39:34;99176.44;;;28.27;38.31
7532;BME280;3807;49.030;8.714;2023-06-26T00:41:59;99179.91;;;28.20;38.47
7532;BME280;3807;49.030;8.714;2023-06-26T00:44:24;99175.00;;;28.25;38.64
7532;BME280;3807;49.030;8.714;2023-06-26T00:46:50;99171.25;;;28.19;38.71
7532;BME280;3807;49.030;8.714;2023-06-26T00:49:15;99176.34;;;28.13;38.75
7532;BME280;3807;49.030;8.714;2023-06-26T00:51:41;99177.19;;;28.05;38.88
7532;BME280;3807;49.030;8.714;2023-06-26T00:54:06;99182.75;;;28.02;38.88
7532;BME280;3807;49.030;8.714;2023-06-26T00:56:32;99166.88;;;27.95;38.81
7532;BME280;3807;49.030;8.714;2023-06-26T00:58:58;99181.62;;;27.88;39.13
7532;BME280;3807;49.030;8.714;2023-06-26T01:01:23;99171.16;;;27.88;38.92
7532;BME280;3807;49.030;8.714;2023-06-26T01:03:51;99175.06;;;27.92;38.96
7532;BME280;3807;49.030;8.714;2023-06-26T01:06:20;99168.56;;;27.80;39.26
7532;BME280;3807;49.030;8.714;2023-06-26T01:08:47;99175.91;;;27.76;39.34
7532;BME280;3807;49.030;8.714;2023-06-26T01:11:13;99170.81;;;27.75;39.32
7532;BME280;3807;49.030;8.714;2023-06-26T01:13:39;99169.50;;;27.71;39.24
7532;BME280;3807;49.030;8.714;2023-06-26T01:16:06;99173.25;;;27.68;39.35
7532;BME280;3807;49.030;8.714;2023-06-26T01:18:32;99171.63;;;27.67;39.29
7532;BME280;3807;49.030;8.714;2023-06-26T01:20:59;99168.84;;;27.61;39.35
7532;BME280;3807;49.030;8.714;2023-06-26T01:26:26;99180.47;;;27.50;39.53
7532;BME280;3807;49.030;8.714;2023-06-26T01:28:53;99172.13;;;27.46;39.65
7532;BME280;3807;49.030;8.714;2023-06-26T01:31:19;99173.13;;;27.37;39.76
7532;BME280;3807;49.030;8.714;2023-06-26T01:33:46;99167.38;;;27.34;39.84
7532;BME280;3807;49.030;8.714;2023-06-26T01:36:12;99163.94;;;27.33;39.73
7532;BME280;3807;49.030;8.714;2023-06-26T01:38:37;99161.34;;;27.25;39.81
7532;BME280;3807;49.030;8.714;2023-06-26T01:41:03;99159.34;;;27.19;39.91
7532;BME280;3807;49.030;8.714;2023-06-26T01:44:04;99161.34;;;27.17;40.05
7532;BME280;3807;49.030;8.714;2023-06-26T01:49:43;99162.41;;;26.98;40.46
7532;BME280;3807;49.030;8.714;2023-06-26T01:52:18;99158.16;;;26.97;40.39
7532;BME280;3807;49.030;8.714;2023-06-26T01:54:53;99155.84;;;26.94;40.32
7532;BME280;3807;49.030;8.714;2023-06-26T01:57:20;99156.81;;;26.84;40.65
7532;BME280;3807;49.030;8.714;2023-06-26T01:59:48;99156.97;;;26.83;40.55
7532;BME280;3807;49.030;8.714;2023-06-26T02:02:13;99157.28;;;26.80;40.38
7532;BME280;3807;49.030;8.714;2023-06-26T02:04:40;99158.44;;;26.77;40.60
7532;BME280;3807;49.030;8.714;2023-06-26T02:07:05;99163.47;;;26.71;40.77
7532;BME280;3807;49.030;8.714;2023-06-26T02:09:30;99154.81;;;26.70;40.75
7532;BME280;3807;49.030;8.714;2023-06-26T02:11:56;99164.75;;;26.67;40.63
7532;BME280;3807;49.030;8.714;2023-06-26T02:14:21;99162.81;;;26.60;40.85
7532;BME280;3807;49.030;8.714;2023-06-26T02:16:46;99160.66;;;26.56;41.02
7532;BME280;3807;49.030;8.714;2023-06-26T02:19:12;99160.13;;;26.52;40.98
7532;BME280;3807;49.030;8.714;2023-06-26T02:21:37;99162.25;;;26.49;40.96
7532;BME280;3807;49.030;8.714;2023-06-26T02:24:04;99165.13;;;26.37;41.11
7532;BME280;3807;49.030;8.714;2023-06-26T02:26:30;99165.44;;;26.43;41.16
7532;BME280;3807;49.030;8.714;2023-06-26T02:28:55;99158.41;;;26.35;41.15
7532;BME280;3807;49.030;8.714;2023-06-26T02:31:20;99160.19;;;26.34;41.19
7532;BME280;3807;49.030;8.714;2023-06-26T02:33:46;99161.00;;;26.27;41.26
7532;BME280;3807;49.030;8.714;2023-06-26T02:36:11;99160.50;;;26.31;41.14
7532;BME280;3807;49.030;8.714;2023-06-26T02:38:36;99157.91;;;26.31;41.19
7532;BME280;3807;49.030;8.714;2023-06-26T02:41:02;99148.91;;;26.26;41.25
7532;BME280;3807;49.030;8.714;2023-06-26T02:43:27;99151.03;;;26.22;41.30
7532;BME280;3807;49.030;8.714;2023-06-26T02:45:52;99154.37;;;26.14;41.43
7532;BME280;3807;49.030;8.714;2023-06-26T02:48:18;99155.22;;;26.15;41.38
7532;BME280;3807;49.030;8.714;2023-06-26T02:50:43;99153.06;;;26.10;41.46
7532;BME280;3807;49.030;8.714;2023-06-26T02:53:11;99158.97;;;26.12;41.38
7532;BME280;3807;49.030;8.714;2023-06-26T02:55:36;99157.63;;;26.08;41.33
7532;BME280;3807;49.030;8.714;2023-06-26T02:58:02;99159.56;;;26.06;41.44
7532;BME280;3807;49.030;8.714;2023-06-26T03:00:27;99164.44;;;26.01;41.49
7532;BME280;3807;49.030;8.714;2023-06-26T03:02:55;99160.84;;;26.02;41.43
7532;BME280;3807;49.030;8.714;2023-06-26T03:05:20;99161.63;;;25.95;41.54
7532;BME280;3807;49.030;8.714;2023-06-26T03:07:46;99163.06;;;25.89;41.56
7532;BME280;3807;49.030;8.714;2023-06-26T03:10:12;99158.66;;;25.89;41.68
7532;BME280;3807;49.030;8.714;2023-06-26T03:12:37;99158.31;;;25.84;41.70
7532;BME280;3807;49.030;8.714;2023-06-26T03:15:02;99159.69;;;25.79;41.82
7532;BME280;3807;49.030;8.714;2023-06-26T03:17:28;99162.59;;;25.76;41.71
7532;BME280;3807;49.030;8.714;2023-06-26T03:19:53;99160.16;;;25.74;41.90
7532;BME280;3807;49.030;8.714;2023-06-26T03:22:18;99164.84;;;25.71;41.86
7532;BME280;3807;49.030;8.714;2023-06-26T03:24:44;99160.41;;;25.63;42.01
7532;BME280;3807;49.030;8.714;2023-06-26T03:27:10;99162.34;;;25.61;42.02
7532;BME280;3807;49.030;8.714;2023-06-26T03:29:37;99165.25;;;25.58;42.15
7532;BME280;3807;49.030;8.714;2023-06-26T03:32:02;99165.41;;;25.56;42.15
7532;BME280;3807;49.030;8.714;2023-06-26T03:34:27;99164.50;;;25.48;42.34
7532;BME280;3807;49.030;8.714;2023-06-26T03:36:53;99157.44;;;25.40;42.46
7532;BME280;3807;49.030;8.714;2023-06-26T03:39:18;99165.94;;;25.42;42.37
7532;BME280;3807;49.030;8.714;2023-06-26T03:41:43;99165.25;;;25.40;42.26
7532;BME280;3807;49.030;8.714;2023-06-26T03:44:09;99163.13;;;25.35;42.36
7532;BME280;3807;49.030;8.714;2023-06-26T03:46:34;99161.38;;;25.26;42.54
7532;BME280;3807;49.030;8.714;2023-06-26T03:48:59;99156.41;;;25.33;42.41
7532;BME280;3807;49.030;8.714;2023-06-26T03:51:25;99160.28;;;25.29;42.51
7532;BME280;3807;49.030;8.714;2023-06-26T03:53:50;99160.72;;;25.24;42.63
7532;BME280;3807;49.030;8.714;2023-06-26T03:56:15;99161.16;;;25.19;42.71
7532;BME280;3807;49.030;8.714;2023-06-26T03:58:41;99161.63;;;25.15;42.71
7532;BME280;3807;49.030;8.714;2023-06-26T04:01:06;99164.22;;;25.15;42.79
7532;BME280;3807;49.030;8.714;2023-06-26T04:03:31;99165.34;;;25.12;42.66
7532;BME280;3807;49.030;8.714;2023-06-26T04:05:57;99162.34;;;25.07;42.71
7532;BME280;3807;49.030;8.714;2023-06-26T04:08:24;99163.00;;;25.09;42.84
7532;BME280;3807;49.030;8.714;2023-06-26T04:10:50;99170.16;;;25.07;42.74
7532;BME280;3807;49.030;8.714;2023-06-26T04:13:17;99170.00;;;25.09;42.76
7532;BME280;3807;49.030;8.714;2023-06-26T04:15:42;99174.97;;;25.02;42.87
7532;BME280;3807;49.030;8.714;2023-06-26T04:18:07;99174.38;;;24.90;43.16
7532;BME280;3807;49.030;8.714;2023-06-26T04:20:33;99175.72;;;24.94;43.00
7532;BME280;3807;49.030;8.714;2023-06-26T04:23:00;99177.63;;;24.92;42.86
7532;BME280;3807;49.030;8.714;2023-06-26T04:25:25;99175.91;;;24.83;43.27
7532;BME280;3807;49.030;8.714;2023-06-26T04:27:54;99182.75;;;24.84;43.25
7532;BME280;3807;49.030;8.714;2023-06-26T04:30:19;99182.91;;;24.83;43.21
7532;BME280;3807;49.030;8.714;2023-06-26T04:32:45;99190.34;;;24.78;43.27
7532;BME280;3807;49.030;8.714;2023-06-26T04:35:10;99180.16;;;24.84;43.19
7532;BME280;3807;49.030;8.714;2023-06-26T04:37:36;99189.06;;;24.82;43.26
7532;BME280;3807;49.030;8.714;2023-06-26T04:40:02;99186.22;;;24.75;43.25
7532;BME280;3807;49.030;8.714;2023-06-26T04:42:29;99185.97;;;24.68;43.48
7532;BME280;3807;49.030;8.714;2023-06-26T04:44:54;99186.91;;;24.77;43.33
7532;BME280;3807;49.030;8.714;2023-06-26T04:47:20;99184.59;;;24.74;43.41
7532;BME280;3807;49.030;8.714;2023-06-26T04:49:45;99178.63;;;24.64;43.56
7532;BME280;3807;49.030;8.714;2023-06-26T04:52:11;99186.44;;;24.64;43.53
7532;BME280;3807;49.030;8.714;2023-06-26T04:54:38;99188.38;;;24.62;43.76
7532;BME280;3807;49.030;8.714;2023-06-26T04:57:04;99182.47;;;24.60;43.74
7532;BME280;3807;49.030;8.714;2023-06-26T04:59:29;99184.63;;;24.64;43.67
7532;BME280;3807;49.030;8.714;2023-06-26T05:01:55;99184.38;;;24.58;44.00
7532;BME280;3807;49.030;8.714;2023-06-26T05:04:20;99185.25;;;24.58;43.90
7532;BME280;3807;49.030;8.714;2023-06-26T05:06:46;99185.97;;;24.68;43.80
7532;BME280;3807;49.030;8.714;2023-06-26T05:09:11;99173.97;;;24.58;43.72
7532;BME280;3807;49.030;8.714;2023-06-26T05:11:37;99175.28;;;24.44;44.22
7532;BME280;3807;49.030;8.714;2023-06-26T05:14:02;99171.03;;;24.43;44.36
7532;BME280;3807;49.030;8.714;2023-06-26T05:16:27;99181.00;;;24.47;44.29
7532;BME280;3807;49.030;8.714;2023-06-26T05:18:53;99179.94;;;24.40;44.44
7532;BME280;3807;49.030;8.714;2023-06-26T05:21:19;99176.94;;;24.45;44.36
7532;BME280;3807;49.030;8.714;2023-06-26T05:23:45;99180.34;;;24.36;44.79
7532;BME280;3807;49.030;8.714;2023-06-26T05:26:12;99173.88;;;24.50;44.32
7532;BME280;3807;49.030;8.714;2023-06-26T05:28:38;99173.62;;;24.43;44.45
7532;BME280;3807;49.030;8.714;2023-06-26T05:31:04;99177.78;;;24.26;44.71
7532;BME280;3807;49.030;8.714;2023-06-26T05:33:31;99186.16;;;24.20;44.90
7532;BME280;3807;49.030;8.714;2023-06-26T05:35:59;99184.06;;;24.33;44.67
7532;BME280;3807;49.030;8.714;2023-06-26T05:38:25;99184.22;;;24.32;44.69
7532;BME280;3807;49.030;8.714;2023-06-26T05:40:51;99191.56;;;24.36;44.45
7532;BME280;3807;49.030;8.714;2023-06-26T05:43:16;99186.41;;;24.27;44.88
7532;BME280;3807;49.030;8.714;2023-06-26T05:45:46;99187.78;;;24.31;44.69
7532;BME280;3807;49.030;8.714;2023-06-26T05:48:11;99175.97;;;24.46;44.41
7532;BME280;3807;49.030;8.714;2023-06-26T05:50:37;99180.19;;;24.47;44.24
7532;BME280;3807;49.030;8.714;2023-06-26T05:53:02;99187.31;;;24.55;44.06
7532;BME280;3807;49.030;8.714;2023-06-26T05:55:30;99178.66;;;24.54;44.07
7532;BME280;3807;49.030;8.714;2023-06-26T05:57:57;99178.66;;;24.54;44.00
7532;BME280;3807;49.030;8.714;2023-06-26T06:00:24;99185.53;;;24.55;44.01
7532;BME280;3807;49.030;8.714;2023-06-26T06:02:51;99188.75;;;24.67;43.77
7532;BME280;3807;49.030;8.714;2023-06-26T06:05:19;99185.41;;;24.75;43.64
7532;BME280;3807;49.030;8.714;2023-06-26T06:07:45;99193.53;;;24.89;43.35
7532;BME280;3807;49.030;8.714;2023-06-26T06:10:10;99193.87;;;24.86;43.25
7532;BME280;3807;49.030;8.714;2023-06-26T06:12:35;99192.84;;;24.97;43.17
7532;BME280;3807;49.030;8.714;2023-06-26T06:15:01;99189.94;;;25.00;42.91
7532;BME280;3807;49.030;8.714;2023-06-26T06:17:26;99196.53;;;24.77;43.45
7532;BME280;3807;49.030;8.714;2023-06-26T06:19:51;99204.94;;;24.88;43.31
7532;BME280;3807;49.030;8.714;2023-06-26T06:22:17;99210.03;;;24.90;43.21
7532;BME280;3807;49.030;8.714;2023-06-26T06:24:42;99203.03;;;24.90;43.11
7532;BME280;3807;49.030;8.714;2023-06-26T06:27:09;99206.06;;;25.13;42.71
7532;BME280;3807;49.030;8.714;2023-06-26T06:29:34;99201.03;;;25.02;42.89
7532;BME280;3807;49.030;8.714;2023-06-26T06:31:59;99192.19;;;24.85;43.30
7532;BME280;3807;49.030;8.714;2023-06-26T06:34:25;99206.75;;;25.15;42.71
7532;BME280;3807;49.030;8.714;2023-06-26T06:36:50;99200.72;;;25.15;42.66
7532;BME280;3807;49.030;8.714;2023-06-26T06:39:16;99197.06;;;24.98;42.90
7532;BME280;3807;49.030;8.714;2023-06-26T06:41:41;99200.41;;;25.18;42.71
7532;BME280;3807;49.030;8.714;2023-06-26T06:44:07;99206.75;;;25.06;42.82
7532;BME280;3807;49.030;8.714;2023-06-26T06:46:32;99203.50;;;25.04;42.92
7532;BME280;3807;49.030;8.714;2023-06-26T06:48:57;99197.81;;;25.18;42.54
7532;BME280;3807;49.030;8.714;2023-06-26T06:51:23;99193.19;;;25.30;42.36
7532;BME280;3807;49.030;8.714;2023-06-26T06:53:48;99197.38;;;25.40;42.17
7532;BME280;3807;49.030;8.714;2023-06-26T06:56:13;99198.69;;;25.62;41.87
7532;BME280;3807;49.030;8.714;2023-06-26T06:58:39;99193.16;;;25.65;41.87
7532;BME280;3807;49.030;8.714;2023-06-26T07:01:08;99197.50;;;25.75;41.65
7532;BME280;3807;49.030;8.714;2023-06-26T07:03:34;99202.66;;;25.84;41.66
7532;BME280;3807;49.030;8.714;2023-06-26T07:05:59;99193.59;;;25.79;41.57
7532;BME280;3807;49.030;8.714;2023-06-26T07:08:25;99196.28;;;25.87;41.40
7532;BME280;3807;49.030;8.714;2023-06-26T07:10:50;99191.97;;;25.96;41.51
7532;BME280;3807;49.030;8.714;2023-06-26T07:13:15;99195.03;;;25.91;41.36
7532;BME280;3807;49.030;8.714;2023-06-26T07:15:41;99193.00;;;26.03;41.39
7532;BME280;3807;49.030;8.714;2023-06-26T07:18:06;99195.81;;;26.09;41.05
7532;BME280;3807;49.030;8.714;2023-06-26T07:20:31;99195.59;;;26.03;41.32
7532;BME280;3807;49.030;8.714;2023-06-26T07:22:57;99191.19;;;26.03;41.54
7532;BME280;3807;49.030;8.714;2023-06-26T07:25:22;99193.59;;;26.23;41.29
7532;BME280;3807;49.030;8.714;2023-06-26T07:27:47;99191.00;;;26.23;40.88
7532;BME280;3807;49.030;8.714;2023-06-26T07:30:13;99190.69;;;26.26;40.85
7532;BME280;3807;49.030;8.714;2023-06-26T07:32:38;99190.34;;;26.47;43.21
7532;BME280;3807;49.030;8.714;2023-06-26T07:35:06;99183.97;;;26.49;43.81
7532;BME280;3807;49.030;8.714;2023-06-26T07:37:31;99192.56;;;26.42;43.22
7532;BME280;3807;49.030;8.714;2023-06-26T07:39:57;99188.44;;;26.39;43.58
7532;BME280;3807;49.030;8.714;2023-06-26T07:42:22;99184.47;;;26.53;43.45
7532;BME280;3807;49.030;8.714;2023-06-26T07:44:48;99183.34;;;26.55;43.16
7532;BME280;3807;49.030;8.714;2023-06-26T07:47:13;99188.00;;;26.78;42.77
7532;BME280;3807;49.030;8.714;2023-06-26T07:49:39;99184.81;;;26.58;42.93
7532;BME280;3807;49.030;8.714;2023-06-26T07:52:06;99182.72;;;26.62;43.23
7532;BME280;3807;49.030;8.714;2023-06-26T07:54:31;99182.62;;;26.79;42.85
7532;BME280;3807;49.030;8.714;2023-06-26T07:57:01;99185.97;;;26.64;43.12
7532;BME280;3807;49.030;8.714;2023-06-26T07:59:28;99185.03;;;26.73;42.79
7532;BME280;3807;49.030;8.714;2023-06-26T08:01:55;99192.34;;;26.61;42.90
7532;BME280;3807;49.030;8.714;2023-06-26T08:04:26;99187.16;;;26.77;42.84
7532;BME280;3807;49.030;8.714;2023-06-26T08:06:54;99185.56;;;26.84;42.78
7532;BME280;3807;49.030;8.714;2023-06-26T08:09:21;99177.75;;;26.93;42.57
7532;BME280;3807;49.030;8.714;2023-06-26T08:11:47;99185.00;;;27.15;42.09
7532;BME280;3807;49.030;8.714;2023-06-26T08:14:13;99183.47;;;26.96;42.32
7532;BME280;3807;49.030;8.714;2023-06-26T08:16:39;99187.03;;;26.87;42.47
7532;BME280;3807;49.030;8.714;2023-06-26T08:19:05;99193.31;;;27.11;42.29
7532;BME280;3807;49.030;8.714;2023-06-26T08:21:30;99187.94;;;27.12;42.36
7532;BME280;3807;49.030;8.714;2023-06-26T08:23:55;99190.84;;;27.09;42.15
7532;BME280;3807;49.030;8.714;2023-06-26T08:26:21;99189.34;;;26.98;42.63
7532;BME280;3807;49.030;8.714;2023-06-26T08:28:46;99197.28;;;27.23;42.38
7532;BME280;3807;49.030;8.714;2023-06-26T08:31:12;99185.56;;;27.51;41.90
7532;BME280;3807;49.030;8.714;2023-06-26T08:33:37;99189.44;;;27.39;42.04
7532;BME280;3807;49.030;8.714;2023-06-26T08:36:02;99188.81;;;27.53;42.02
7532;BME280;3807;49.030;8.714;2023-06-26T08:38:28;99188.62;;;27.47;42.21
7532;BME280;3807;49.030;8.714;2023-06-26T08:40:53;99194.84;;;27.38;42.47
7532;BME280;3807;49.030;8.714;2023-06-26T08:43:18;99192.06;;;27.39;42.65
7532;BME280;3807;49.030;8.714;2023-06-26T08:45:45;99200.59;;;27.82;41.88
7532;BME280;3807;49.030;8.714;2023-06-26T08:48:11;99203.50;;;28.12;41.46
7532;BME280;3807;49.030;8.714;2023-06-26T08:50:38;99197.50;;;27.78;42.25
7532;BME280;3807;49.030;8.714;2023-06-26T08:53:13;99206.00;;;27.81;42.36
7532;BME280;3807;49.030;8.714;2023-06-26T08:55:43;99207.28;;;27.68;42.44
7532;BME280;3807;49.030;8.714;2023-06-26T08:58:09;99210.75;;;27.77;42.62
7532;BME280;3807;49.030;8.714;2023-06-26T09:00:35;99207.13;;;27.94;42.36
7532;BME280;3807;49.030;8.714;2023-06-26T09:03:03;99207.47;;;27.83;42.55
7532;BME280;3807;49.030;8.714;2023-06-26T09:05:28;99215.16;;;28.01;42.54
7532;BME280;3807;49.030;8.714;2023-06-26T09:07:54;99211.22;;;28.05;42.19
7532;BME280;3807;49.030;8.714;2023-06-26T09:10:21;99218.06;;;28.22;42.17
7532;BME280;3807;49.030;8.714;2023-06-26T09:12:47;99217.06;;;28.40;41.89
7532;BME280;3807;49.030;8.714;2023-06-26T09:15:14;99220.19;;;28.19;42.41
7532;BME280;3807;49.030;8.714;2023-06-26T09:17:40;99228.56;;;28.14;42.53
7532;BME280;3807;49.030;8.714;2023-06-26T09:20:06;99220.97;;;28.44;42.20
7532;BME280;3807;49.030;8.714;2023-06-26T09:22:36;99219.78;;;28.63;41.89
7532;BME280;3807;49.030;8.714;2023-06-26T09:25:02;99230.56;;;28.68;41.69
7532;BME280;3807;49.030;8.714;2023-06-26T09:27:28;99231.06;;;28.63;42.17
7532;BME280;3807;49.030;8.714;2023-06-26T09:29:53;99236.53;;;28.85;41.92
7532;BME280;3807;49.030;8.714;2023-06-26T09:32:26;99242.16;;;28.73;42.43
7532;BME280;3807;49.030;8.714;2023-06-26T09:34:53;99239.56;;;28.73;42.65
7532;BME280;3807;49.030;8.714;2023-06-26T09:37:21;99242.06;;;28.98;42.12
7532;BME280;3807;49.030;8.714;2023-06-26T09:39:46;99242.97;;;29.13;41.62
7532;BME280;3807;49.030;8.714;2023-06-26T09:42:14;99242.72;;;29.00;42.30
7532;BME280;3807;49.030;8.714;2023-06-26T09:44:47;99238.00;;;29.27;41.66
7532;BME280;3807;49.030;8.714;2023-06-26T09:47:16;99248.84;;;28.76;42.69
7532;BME280;3807;49.030;8.714;2023-06-26T09:49:43;99243.03;;;29.05;42.44
7532;BME280;3807;49.030;8.714;2023-06-26T09:52:09;99255.28;;;29.13;42.51
7532;BME280;3807;49.030;8.714;2023-06-26T09:54:34;99251.03;;;29.12;42.66
7532;BME280;3807;49.030;8.714;2023-06-26T09:57:08;99254.56;;;29.50;41.85
7532;BME280;3807;49.030;8.714;2023-06-26T09:59:34;99250.16;;;29.42;42.12
7532;BME280;3807;49.030;8.714;2023-06-26T10:02:00;99251.09;;;29.50;41.93
7532;BME280;3807;49.030;8.714;2023-06-26T10:04:25;99234.56;;;29.72;41.22
7532;BME280;3807;49.030;8.714;2023-06-26T10:06:54;99243.72;;;29.76;41.42
7532;BME280;3807;49.030;8.714;2023-06-26T10:09:22;99245.66;;;29.82;40.98
7532;BME280;3807;49.030;8.714;2023-06-26T10:12:01;99240.44;;;29.74;41.45
7532;BME280;3807;49.030;8.714;2023-06-26T10:14:33;99241.53;;;30.03;40.82
7532;BME280;3807;49.030;8.714;2023-06-26T10:17:01;99244.16;;;30.03;40.85
7532;BME280;3807;49.030;8.714;2023-06-26T10:19:29;99241.25;;;30.12;40.58
7532;BME280;3807;49.030;8.714;2023-06-26T10:21:58;99245.47;;;30.36;40.77
7532;BME280;3807;49.030;8.714;2023-06-26T10:24:24;99247.63;;;30.18;40.57
7532;BME280;3807;49.030;8.714;2023-06-26T10:27:04;99236.41;;;30.24;40.65
7532;BME280;3807;49.030;8.714;2023-06-26T10:29:34;99242.03;;;30.36;40.50
7532;BME280;3807;49.030;8.714;2023-06-26T10:32:01;99243.41;;;30.61;40.30
7532;BME280;3807;49.030;8.714;2023-06-26T10:34:28;99245.66;;;30.65;40.43
7532;BME280;3807;49.030;8.714;2023-06-26T10:37:01;99242.84;;;30.36;40.81
7532;BME280;3807;49.030;8.714;2023-06-26T10:39:27;99257.09;;;30.42;40.95
7532;BME280;3807;49.030;8.714;2023-06-26T10:41:54;99253.97;;;30.68;40.27
7532;BME280;3807;49.030;8.714;2023-06-26T10:44:20;99259.34;;;30.60;40.57
7532;BME280;3807;49.030;8.714;2023-06-26T10:49:20;99261.31;;;31.02;39.96
7532;BME280;3807;49.030;8.714;2023-06-26T10:51:49;99265.25;;;30.92;39.75
7532;BME280;3807;49.030;8.714;2023-06-26T10:54:18;99262.41;;;31.08;40.10
7532;BME280;3807;49.030;8.714;2023-06-26T10:56:48;99263.91;;;31.17;39.64
7532;BME280;3807;49.030;8.714;2023-06-26T10:59:21;99262.28;;;31.52;39.61
7532;BME280;3807;49.030;8.714;2023-06-26T11:04:38;99269.03;;;31.62;39.14
7532;BME280;3807;49.030;8.714;2023-06-26T11:07:23;99274.63;;;31.73;39.15
7532;BME280;3807;49.030;8.714;2023-06-26T11:10:08;99273.78;;;31.88;38.81
7532;BME280;3807;49.030;8.714;2023-06-26T11:12:41;99280.00;;;31.44;39.68
7532;BME280;3807;49.030;8.714;2023-06-26T11:17:34;99280.44;;;31.69;39.16
7532;BME280;3807;49.030;8.714;2023-06-26T11:20:00;99276.19;;;31.68;39.23
7532;BME280;3807;49.030;8.714;2023-06-26T11:22:26;99277.37;;;31.44;39.53
7532;BME280;3807;49.030;8.714;2023-06-26T11:24:53;99283.59;;;31.21;40.32
7532;BME280;3807;49.030;8.714;2023-06-26T11:27:19;99286.41;;;31.77;39.26
7532;BME280;3807;49.030;8.714;2023-06-26T11:29:48;99283.53;;;31.51;39.48
7532;BME280;3807;49.030;8.714;2023-06-26T11:32:14;99283.87;;;31.63;39.25
7532;BME280;3807;49.030;8.714;2023-06-26T11:34:40;99286.66;;;31.40;40.00
7532;BME280;3807;49.030;8.714;2023-06-26T11:37:08;99285.25;;;31.80;39.31
7532;BME280;3807;49.030;8.714;2023-06-26T11:39:33;99293.06;;;31.73;39.10
7532;BME280;3807;49.030;8.714;2023-06-26T11:41:59;99292.78;;;32.11;38.85
7532;BME280;3807;49.030;8.714;2023-06-26T11:44:29;99299.03;;;32.03;38.84
7532;BME280;3807;49.030;8.714;2023-06-26T11:46:56;99290.81;;;31.49;39.22
7532;BME280;3807;49.030;8.714;2023-06-26T11:49:22;99293.94;;;31.81;39.08
7532;BME280;3807;49.030;8.714;2023-06-26T11:51:50;99292.72;;;31.98;39.04
7532;BME280;3807;49.030;8.714;2023-06-26T11:54:15;99288.38;;;32.75;37.60
7532;BME280;3807;49.030;8.714;2023-06-26T11:56:41;99282.47;;;32.72;37.33
7532;BME280;3807;49.030;8.714;2023-06-26T11:59:08;99274.81;;;32.91;37.23
7532;BME280;3807;49.030;8.714;2023-06-26T12:01:44;99276.53;;;33.05;37.06
7532;BME280;3807;49.030;8.714;2023-06-26T12:04:11;99279.44;;;33.17;36.90
7532;BME280;3807;49.030;8.714;2023-06-26T12:06:43;99277.84;;;33.36;36.18
7532;BME280;3807;49.030;8.714;2023-06-26T12:09:11;99274.25;;;33.57;36.17
7532;BME280;3807;49.030;8.714;2023-06-26T12:11:39;99267.69;;;32.78;37.27
7532;BME280;3807;49.030;8.714;2023-06-26T12:14:06;99271.66;;;32.95;36.58
7532;BME280;3807;49.030;8.714;2023-06-26T12:16:33;99271.19;;;32.51;36.61
7532;BME280;3807;49.030;8.714;2023-06-26T12:19:00;99277.06;;;32.53;36.52
7532;BME280;3807;49.030;8.714;2023-06-26T12:24:08;99278.19;;;32.37;35.97
7532;BME280;3807;49.030;8.714;2023-06-26T12:26:35;99285.94;;;32.80;35.74
7532;BME280;3807;49.030;8.714;2023-06-26T12:29:04;99285.91;;;32.73;35.70
7532;BME280;3807;49.030;8.714;2023-06-26T12:31:31;99278.06;;;32.86;35.40
7532;BME280;3807;49.030;8.714;2023-06-26T12:33:56;99288.16;;;33.17;34.99
7532;BME280;3807;49.030;8.714;2023-06-26T12:36:22;99290.53;;;33.74;34.27
7532;BME280;3807;49.030;8.714;2023-06-26T12:38:48;99293.41;;;34.05;33.54
7532;BME280;3807;49.030;8.714;2023-06-26T12:41:14;99287.09;;;34.13;33.57
7532;BME280;3807;49.030;8.714;2023-06-26T12:43:40;99279.94;;;33.60;33.16
7532;BME280;3807;49.030;8.714;2023-06-26T12:46:06;99286.47;;;33.91;33.56
7532;BME280;3807;49.030;8.714;2023-06-26T12:48:42;99285.66;;;33.90;33.49
7532;BME280;3807;49.030;8.714;2023-06-26T12:51:17;99280.38;;;33.90;33.60
7532;BME280;3807;49.030;8.714;2023-06-26T12:53:43;99277.91;;;33.89;33.14
7532;BME280;3807;49.030;8.714;2023-06-26T12:56:10;99272.44;;;33.84;32.57
7532;BME280;3807;49.030;8.714;2023-06-26T12:58:37;99279.28;;;34.45;32.16
7532;BME280;3807;49.030;8.714;2023-06-26T13:01:06;99276.66;;;34.45;32.46
7532;BME280;3807;49.030;8.714;2023-06-26T13:03:40;99288.28;;;34.37;31.86
7532;BME280;3807;49.030;8.714;2023-06-26T13:06:06;99278.75;;;34.23;32.31
7532;BME280;3807;49.030;8.714;2023-06-26T13:08:31;99286.66;;;34.23;32.06
7532;BME280;3807;49.030;8.714;2023-06-26T13:10:57;99281.72;;;34.66;31.31
7532;BME280;3807;49.030;8.714;2023-06-26T13:13:22;99288.19;;;34.83;31.83
7532;BME280;3807;49.030;8.714;2023-06-26T13:15:47;99286.28;;;34.12;30.53
7532;BME280;3807;49.030;8.714;2023-06-26T13:18:13;99282.16;;;34.50;30.04
7532;BME280;3807;49.030;8.714;2023-06-26T13:20:38;99280.59;;;34.16;30.52
7532;BME280;3807;49.030;8.714;2023-06-26T13:23:03;99271.56;;;34.63;29.66
7532;BME280;3807;49.030;8.714;2023-06-26T13:25:29;99284.69;;;34.83;30.76
7532;BME280;3807;49.030;8.714;2023-06-26T13:27:54;99280.25;;;34.83;29.37
7532;BME280;3807;49.030;8.714;2023-06-26T13:30:21;99273.84;;;34.26;29.83
7532;BME280;3807;49.030;8.714;2023-06-26T13:32:47;99279.81;;;34.80;30.05
7532;BME280;3807;49.030;8.714;2023-06-26T13:35:12;99281.62;;;34.93;29.73